Time;durP1;ratioP1;P1;durP2;ratioP2;P2;SDS_P1;SDS_P2;PMS_P1;PMS_P2;Temp;Humidity;BMP_temperature;BMP_pressure;BME280_temperature;BME280_humidity;BME280_pressure;Samples;Min_cycle;Max_cycle;Signal;HPM_P1;HPM_P2
2021/05/14 00:00:11;;;;;;;4.20;2.55;;;12.90;90.10;;;;;;5073587;28;20040;-74
2021/05/14 00:02:39;;;;;;;3.83;2.47;;;13.00;90.10;;;;;;5072159;28;20040;-74
2021/05/14 00:05:08;;;;;;;5.53;3.38;;;12.90;90.10;;;;;;5048594;28;20045;-75
2021/05/14 00:07:35;;;;;;;3.80;2.72;;;12.90;90.10;;;;;;5040157;28;20056;-75
2021/05/14 00:10:02;;;;;;;3.50;2.38;;;12.90;90.10;;;;;;5058032;28;20044;-74
2021/05/14 00:12:29;;;;;;;4.25;2.70;;;12.90;90.10;;;;;;5054006;28;20060;-75
2021/05/14 00:14:56;;;;;;;4.82;2.88;;;12.90;90.10;;;;;;5040948;28;20041;-75
2021/05/14 00:17:23;;;;;;;3.42;2.25;;;12.90;90.10;;;;;;5057382;28;20045;-75
2021/05/14 00:19:50;;;;;;;3.20;2.10;;;12.90;90.10;;;;;;5056055;28;20097;-74
2021/05/14 00:22:17;;;;;;;3.67;2.70;;;12.90;90.10;;;;;;5057368;28;20461;-75
2021/05/14 00:24:45;;;;;;;6.15;2.90;;;12.90;90.20;;;;;;5073311;28;20113;-75
2021/05/14 00:27:13;;;;;;;3.97;2.42;;;12.90;90.20;;;;;;5056702;28;20040;-75
2021/05/14 00:29:40;;;;;;;4.80;2.60;;;12.90;90.30;;;;;;5073253;28;20051;-75
2021/05/14 00:32:08;;;;;;;3.38;2.47;;;12.90;90.30;;;;;;5072712;28;20037;-75
2021/05/14 00:34:38;;;;;;;3.17;1.90;;;13.00;90.30;;;;;;5056758;28;20391;-75
2021/05/14 00:37:05;;;;;;;3.22;2.22;;;13.00;90.30;;;;;;5072652;28;20033;-75
2021/05/14 00:39:32;;;;;;;3.10;2.00;;;12.90;90.30;;;;;;5074843;28;20048;-75
2021/05/14 00:41:59;;;;;;;3.38;2.05;;;13.00;90.30;;;;;;5072249;28;20565;-75
2021/05/14 00:44:38;;;;;;;3.22;1.70;;;12.90;90.30;;;;;;5072649;28;20051;-74
2021/05/14 00:47:09;;;;;;;3.72;1.90;;;12.90;90.30;;;;;;5073236;28;20064;-75
2021/05/14 00:49:38;;;;;;;3.97;1.92;;;13.00;90.30;;;;;;5072483;28;20036;-74
2021/05/14 00:52:10;;;;;;;3.92;2.25;;;13.00;90.40;;;;;;5073262;28;20111;-74
2021/05/14 00:54:37;;;;;;;3.65;1.98;;;12.90;90.40;;;;;;5072502;28;20476;-74
2021/05/14 00:57:08;;;;;;;3.60;2.30;;;13.00;90.70;;;;;;5055835;28;20052;-74
2021/05/14 00:59:36;;;;;;;4.00;2.08;;;13.00;90.40;;;;;;5073211;28;20044;-75
2021/05/14 01:02:05;;;;;;;3.22;2.25;;;13.00;90.40;;;;;;5073176;28;20041;-74
2021/05/14 01:04:33;;;;;;;2.88;1.70;;;13.00;90.40;;;;;;5051480;28;20068;-75
2021/05/14 01:07:00;;;;;;;3.65;1.98;;;13.00;90.70;;;;;;5035452;28;20037;-75
2021/05/14 01:09:27;;;;;;;4.30;2.40;;;13.00;90.40;;;;;;5071597;28;20082;-75
2021/05/14 01:11:54;;;;;;;6.20;2.30;;;13.10;90.40;;;;;;5072852;28;20032;-75
2021/05/14 01:14:22;;;;;;;3.33;2.25;;;13.00;90.30;;;;;;5073133;28;20127;-74
2021/05/14 01:16:50;;;;;;;3.42;2.15;;;13.10;90.40;;;;;;5071605;28;20040;-75
2021/05/14 01:19:17;;;;;;;3.92;2.58;;;13.10;90.40;;;;;;5072144;28;20048;-74
2021/05/14 01:21:44;;;;;;;3.95;2.75;;;13.10;90.40;;;;;;5051968;28;20044;-75
2021/05/14 01:24:12;;;;;;;4.22;2.63;;;13.10;90.40;;;;;;5071928;28;20049;-75
2021/05/14 01:26:39;;;;;;;5.50;3.22;;;13.20;90.50;;;;;;5061792;28;20036;-75
2021/05/14 01:29:08;;;;;;;4.20;2.78;;;13.20;90.50;;;;;;5054478;28;20048;-75
2021/05/14 01:31:36;;;;;;;4.05;3.13;;;13.20;90.50;;;;;;5072955;28;20037;-75
2021/05/14 01:34:06;;;;;;;5.13;3.15;;;13.20;90.50;;;;;;5072001;28;20063;-75
2021/05/14 01:36:36;;;;;;;6.40;3.70;;;13.20;90.50;;;;;;5071940;28;20044;-75
2021/05/14 01:39:11;;;;;;;6.43;4.60;;;13.20;90.50;;;;;;5072987;28;20115;-76
2021/05/14 01:41:39;;;;;;;7.85;5.45;;;13.10;90.50;;;;;;5072451;28;20041;-75
2021/05/14 01:44:07;;;;;;;6.90;5.30;;;13.10;90.60;;;;;;5052313;28;20045;-77
2021/05/14 01:46:34;;;;;;;6.30;4.45;;;13.00;90.60;;;;;;5060552;28;20048;-76
2021/05/14 01:49:02;;;;;;;6.03;4.68;;;12.90;90.60;;;;;;5038726;28;20408;-76
2021/05/14 01:51:29;;;;;;;8.75;5.80;;;12.90;90.60;;;;;;5051617;28;20484;-76
2021/05/14 01:53:56;;;;;;;8.55;5.60;;;12.90;90.60;;;;;;5071825;28;20043;-76
2021/05/14 01:56:23;;;;;;;7.57;5.57;;;12.90;90.60;;;;;;5072710;28;20032;-76
2021/05/14 01:58:51;;;;;;;7.78;5.68;;;12.90;90.70;;;;;;5060934;28;20401;-76
2021/05/14 02:01:19;;;;;;;7.45;4.97;;;12.90;90.70;;;;;;5053403;28;20090;-76
2021/05/14 02:03:46;;;;;;;8.57;6.05;;;12.80;90.70;;;;;;5071650;28;20048;-76
2021/05/14 02:06:14;;;;;;;7.63;5.63;;;12.80;90.70;;;;;;5039883;28;20048;-76
2021/05/14 02:08:41;;;;;;;9.32;5.95;;;12.80;90.70;;;;;;5076346;28;20033;-76
2021/05/14 02:11:09;;;;;;;10.63;7.57;;;12.80;90.70;;;;;;5076091;28;20158;-76
2021/05/14 02:13:40;;;;;;;9.48;7.50;;;12.80;90.70;;;;;;5076079;28;20045;-76
2021/05/14 02:16:09;;;;;;;9.23;6.65;;;12.80;91.00;;;;;;5076018;28;21093;-76
2021/05/14 02:18:38;;;;;;;10.50;6.85;;;12.70;90.70;;;;;;5065232;28;20040;-76
2021/05/14 02:21:06;;;;;;;9.80;6.60;;;12.70;90.80;;;;;;5075596;28;20140;-77
2021/05/14 02:23:33;;;;;;;10.05;6.63;;;12.70;90.80;;;;;;5076742;28;20040;-76
2021/05/14 02:26:00;;;;;;;8.50;6.50;;;12.70;90.90;;;;;;5075171;28;20057;-76
2021/05/14 02:28:27;;;;;;;10.25;7.07;;;12.70;90.90;;;;;;5042167;28;20036;-76
2021/05/14 02:30:54;;;;;;;9.15;6.47;;;12.70;90.90;;;;;;5075680;28;20040;-76
2021/05/14 02:33:21;;;;;;;9.23;6.68;;;12.60;90.90;;;;;;5075185;28;20041;-77
2021/05/14 02:35:48;;;;;;;8.82;5.93;;;12.60;90.90;;;;;;5058680;28;20040;-78
2021/05/14 02:38:15;;;;;;;8.10;5.68;;;12.60;91.20;;;;;;5042241;28;20086;-77
2021/05/14 02:40:42;;;;;;;7.75;5.55;;;12.60;91.00;;;;;;5075451;28;20040;-77
2021/05/14 02:43:09;;;;;;;8.35;5.65;;;12.70;91.00;;;;;;5058802;28;20048;-76
2021/05/14 02:45:37;;;;;;;7.95;5.30;;;12.70;91.00;;;;;;5074776;28;20036;-77
2021/05/14 02:48:07;;;;;;;8.43;5.88;;;12.70;91.00;;;;;;5075085;28;20040;-77
2021/05/14 02:50:35;;;;;;;8.20;5.75;;;12.80;91.00;;;;;;5076644;28;20075;-76
2021/05/14 02:53:03;;;;;;;7.45;5.13;;;12.80;91.00;;;;;;5075527;28;20060;-77
2021/05/14 02:55:30;;;;;;;8.95;5.50;;;12.80;90.90;;;;;;5076482;28;20454;-76
2021/05/14 02:57:57;;;;;;;7.82;5.63;;;12.80;90.90;;;;;;5076227;28;20101;-77
2021/05/14 03:00:25;;;;;;;8.40;5.43;;;12.90;90.90;;;;;;5075117;28;20515;-77
2021/05/14 03:02:52;;;;;;;9.18;6.05;;;12.80;90.90;;;;;;5058700;28;20318;-77
2021/05/14 03:05:19;;;;;;;11.10;7.38;;;12.80;90.90;;;;;;5076562;28;20040;-77
2021/05/14 03:07:46;;;;;;;10.15;6.00;;;12.80;90.90;;;;;;5074876;28;20048;-77
2021/05/14 03:10:13;;;;;;;8.68;5.72;;;12.80;91.00;;;;;;5064881;28;20455;-77
2021/05/14 03:12:40;;;;;;;8.65;6.13;;;12.80;91.00;;;;;;5074091;28;20084;-78
2021/05/14 03:15:08;;;;;;;9.05;6.15;;;12.80;91.00;;;;;;5074328;28;20036;-75
2021/05/14 03:17:35;;;;;;;8.25;5.65;;;12.80;91.00;;;;;;5074160;28;20470;-75
2021/05/14 03:20:05;;;;;;;8.50;6.22;;;12.70;91.30;;;;;;5034895;28;20049;-75
2021/05/14 03:22:32;;;;;;;8.48;6.18;;;12.70;91.00;;;;;;5065181;28;20052;-75
2021/05/14 03:24:59;;;;;;;7.82;5.38;;;12.70;91.10;;;;;;5057490;28;20496;-75
2021/05/14 03:27:26;;;;;;;7.90;5.43;;;12.60;91.10;;;;;;5074365;28;20070;-75
2021/05/14 03:29:54;;;;;;;7.88;5.72;;;12.70;91.10;;;;;;5074124;28;20044;-75
2021/05/14 03:32:21;;;;;;;7.90;5.72;;;12.60;91.10;;;;;;5038043;28;20072;-75
2021/05/14 03:34:48;;;;;;;8.65;5.97;;;12.60;91.10;;;;;;5074259;28;20036;-75
2021/05/14 03:37:15;;;;;;;9.82;5.80;;;12.60;91.10;;;;;;5074238;28;20082;-76
2021/05/14 03:39:45;;;;;;;7.75;5.32;;;12.60;91.10;;;;;;5054567;28;20107;-76
2021/05/14 03:42:18;;;;;;;8.02;5.32;;;12.60;91.20;;;;;;5074258;28;20036;-76
2021/05/14 03:44:45;;;;;;;8.23;4.88;;;12.60;91.20;;;;;;5073997;28;20055;-76
2021/05/14 03:47:12;;;;;;;8.60;6.35;;;12.60;91.20;;;;;;5074737;28;20040;-76
2021/05/14 03:49:40;;;;;;;8.30;5.68;;;12.70;91.20;;;;;;5074986;28;20068;-76
2021/05/14 03:52:09;;;;;;;7.63;5.35;;;12.70;91.50;;;;;;5073131;28;20044;-76
2021/05/14 03:54:37;;;;;;;8.45;5.85;;;12.70;91.20;;;;;;5074466;28;20041;-75
2021/05/14 03:57:04;;;;;;;9.60;6.22;;;12.80;91.30;;;;;;5074547;28;20048;-75
2021/05/14 03:59:31;;;;;;;8.88;5.72;;;12.80;91.10;;;;;;5075144;28;20066;-76
2021/05/14 04:02:00;;;;;;;8.30;5.95;;;12.80;91.10;;;;;;5066746;28;20045;-76
2021/05/14 04:04:29;;;;;;;9.90;6.38;;;12.80;91.10;;;;;;5075260;28;20040;-76
2021/05/14 04:06:56;;;;;;;8.23;5.65;;;12.80;91.40;;;;;;5073811;28;20064;-75
2021/05/14 04:09:31;;;;;;;8.90;5.70;;;12.90;91.10;;;;;;5073589;28;20037;-76
2021/05/14 04:14:30;;;;;;;9.95;5.80;;;12.90;91.00;;;;;;5074676;28;20408;-76
2021/05/14 04:17:07;;;;;;;8.10;5.43;;;12.90;91.00;;;;;;5073537;28;20123;-76
2021/05/14 04:19:34;;;;;;;8.40;5.50;;;12.90;91.00;;;;;;5072832;28;20086;-76
2021/05/14 04:22:03;;;;;;;6.85;4.60;;;12.90;91.00;;;;;;5056573;28;20435;-76
2021/05/14 04:24:30;;;;;;;10.23;5.57;;;13.00;91.00;;;;;;5073743;28;20098;-76
2021/05/14 04:26:57;;;;;;;7.35;5.38;;;12.90;90.90;;;;;;5073323;28;20110;-76
2021/05/14 04:29:26;;;;;;;9.05;5.93;;;13.00;90.90;;;;;;5072946;28;20075;-76
2021/05/14 04:31:53;;;;;;;6.95;4.97;;;13.00;90.90;;;;;;5072695;28;20473;-76
2021/05/14 04:34:21;;;;;;;8.73;5.45;;;12.90;90.90;;;;;;5074245;28;20041;-76
2021/05/14 04:36:56;;;;;;;7.32;5.55;;;12.90;90.90;;;;;;5054799;28;20623;-75
2021/05/14 04:39:23;;;;;;;7.70;5.55;;;13.00;91.00;;;;;;5053734;28;20433;-76
2021/05/14 04:41:50;;;;;;;9.70;6.13;;;13.00;91.00;;;;;;5056482;28;20074;-76
2021/05/14 04:44:18;;;;;;;9.45;5.82;;;13.00;91.00;;;;;;5073883;28;20047;-75
2021/05/14 04:46:45;;;;;;;9.85;5.47;;;12.90;91.00;;;;;;5072799;28;20062;-75
2021/05/14 04:49:12;;;;;;;8.38;5.97;;;12.90;91.00;;;;;;5073822;28;20040;-76
2021/05/14 04:51:39;;;;;;;7.43;5.18;;;13.00;91.10;;;;;;5072419;28;20486;-76
2021/05/14 04:54:06;;;;;;;7.78;5.45;;;13.00;91.00;;;;;;5056062;28;20041;-76
2021/05/14 04:56:33;;;;;;;9.43;5.50;;;13.00;91.00;;;;;;5056812;28;20480;-76
2021/05/14 04:59:00;;;;;;;8.60;5.53;;;13.00;91.00;;;;;;5054517;28;20045;-76
2021/05/14 05:01:28;;;;;;;6.60;4.25;;;13.00;91.00;;;;;;5073802;28;20060;-76
2021/05/14 05:03:57;;;;;;;7.88;5.15;;;13.00;91.00;;;;;;5055726;28;20540;-75
2021/05/14 05:06:25;;;;;;;7.93;5.47;;;13.00;91.00;;;;;;5049791;28;20382;-76
2021/05/14 05:08:52;;;;;;;7.65;5.10;;;13.00;91.00;;;;;;5065120;28;20060;-76
2021/05/14 05:11:19;;;;;;;7.15;4.97;;;13.00;91.00;;;;;;5055854;28;20041;-76
2021/05/14 05:13:46;;;;;;;9.38;5.70;;;13.00;90.90;;;;;;5072737;28;20060;-75
2021/05/14 05:16:13;;;;;;;9.43;6.47;;;13.00;90.90;;;;;;5072624;28;20044;-75
2021/05/14 05:18:40;;;;;;;8.05;5.07;;;13.00;90.90;;;;;;5074121;28;20048;-76
2021/05/14 05:21:07;;;;;;;11.52;5.80;;;13.00;90.80;;;;;;5053914;28;20041;-76
2021/05/14 05:23:34;;;;;;;7.72;5.18;;;13.00;90.80;;;;;;5052121;28;20095;-76
2021/05/14 05:26:01;;;;;;;10.50;5.97;;;13.00;91.00;;;;;;5065742;28;20047;-76
2021/05/14 05:28:30;;;;;;;10.57;6.57;;;13.00;90.80;;;;;;5072581;28;20040;-76
2021/05/14 05:30:57;;;;;;;10.35;6.20;;;13.00;90.80;;;;;;5071465;28;20048;-76
2021/05/14 05:33:25;;;;;;;8.90;5.55;;;13.00;90.90;;;;;;5055881;28;20040;-76
2021/05/14 05:35:54;;;;;;;9.40;5.68;;;13.00;90.80;;;;;;5073871;28;20555;-76
2021/05/14 05:38:24;;;;;;;12.20;7.55;;;13.00;90.80;;;;;;5056311;28;20052;-75
2021/05/14 05:40:52;;;;;;;9.93;7.18;;;13.00;90.70;;;;;;5071196;28;20059;-76
2021/05/14 05:43:19;;;;;;;12.45;8.07;;;13.00;90.70;;;;;;5072149;28;20040;-76
2021/05/14 05:45:46;;;;;;;10.75;7.50;;;12.90;90.70;;;;;;5072639;28;20049;-75
2021/05/14 05:48:14;;;;;;;8.73;6.13;;;12.90;90.80;;;;;;5069464;28;20261;-76
2021/05/14 05:50:42;;;;;;;9.52;5.88;;;12.80;90.70;;;;;;5054499;28;20380;-76
2021/05/14 05:53:09;;;;;;;8.50;5.20;;;12.80;90.80;;;;;;5071669;28;20045;-77
2021/05/14 05:55:37;;;;;;;7.80;4.95;;;12.80;90.80;;;;;;5073244;28;20045;-76
2021/05/14 05:58:09;;;;;;;7.80;4.90;;;12.80;90.80;;;;;;5071943;28;20052;-77
2021/05/14 06:00:36;;;;;;;6.35;3.88;;;12.90;90.80;;;;;;5070766;28;20047;-77
2021/05/14 06:03:06;;;;;;;6.50;4.28;;;12.90;90.80;;;;;;5051780;28;20088;-76
2021/05/14 06:05:33;;;;;;;6.82;4.18;;;13.00;90.80;;;;;;5065273;28;20036;-76
2021/05/14 06:08:02;;;;;;;6.68;4.25;;;13.00;91.00;;;;;;5051545;28;20127;-76
2021/05/14 06:10:29;;;;;;;6.45;4.30;;;13.10;90.70;;;;;;5066475;28;20042;-76
2021/05/14 06:12:56;;;;;;;7.03;4.22;;;13.10;90.70;;;;;;5052315;28;20045;-76
2021/05/14 06:15:24;;;;;;;8.25;5.20;;;13.10;90.60;;;;;;5071966;28;20032;-77
2021/05/14 06:17:51;;;;;;;8.52;5.22;;;13.10;90.60;;;;;;5073998;28;20832;-77
2021/05/14 06:20:24;;;;;;;8.30;5.65;;;13.00;90.60;;;;;;5072625;28;20119;-77
2021/05/14 06:22:51;;;;;;;8.25;5.13;;;13.00;90.60;;;;;;5050121;28;20064;-77
2021/05/14 06:25:18;;;;;;;7.72;4.78;;;13.10;90.60;;;;;;5072507;28;20067;-76
2021/05/14 06:27:46;;;;;;;7.28;4.55;;;13.20;90.80;;;;;;5073388;28;20033;-76
2021/05/14 06:30:14;;;;;;;7.63;4.60;;;13.20;90.50;;;;;;5038846;28;20090;-76
2021/05/14 06:32:41;;;;;;;8.95;5.70;;;13.30;90.50;;;;;;5065946;28;20036;-76
2021/05/14 06:35:08;;;;;;;7.45;5.07;;;13.30;90.40;;;;;;5071124;28;20033;-76
2021/05/14 06:37:38;;;;;;;8.52;6.05;;;13.20;90.40;;;;;;5055536;28;20049;-76
2021/05/14 06:40:06;;;;;;;10.80;6.43;;;13.30;90.40;;;;;;5071675;28;20102;-76
2021/05/14 06:42:34;;;;;;;9.88;6.15;;;13.20;90.30;;;;;;5071340;28;20049;-76
2021/05/14 06:45:01;;;;;;;11.48;7.38;;;13.30;90.40;;;;;;5072623;28;20424;-75
2021/05/14 06:47:28;;;;;;;12.48;8.07;;;13.30;90.30;;;;;;5068937;28;20429;-75
2021/05/14 06:49:57;;;;;;;9.00;6.07;;;13.20;90.20;;;;;;5053775;28;20045;-76
2021/05/14 06:52:24;;;;;;;8.88;5.63;;;13.20;90.30;;;;;;5071698;28;20036;-76
2021/05/14 06:54:51;;;;;;;9.40;5.45;;;13.20;90.40;;;;;;5077892;28;20033;-76
2021/05/14 06:57:18;;;;;;;7.65;5.45;;;13.30;90.40;;;;;;5075736;28;20043;-76
2021/05/14 06:59:45;;;;;;;10.55;6.60;;;13.30;90.30;;;;;;5054677;28;20052;-76
2021/05/14 07:02:13;;;;;;;9.60;5.60;;;13.30;90.20;;;;;;5038349;28;20544;-75
2021/05/14 07:04:40;;;;;;;8.52;5.28;;;13.30;90.20;;;;;;5073131;28;20048;-75
2021/05/14 07:07:07;;;;;;;7.70;4.70;;;13.30;90.20;;;;;;5067333;28;20067;-73
2021/05/14 07:09:34;;;;;;;9.85;5.78;;;13.30;90.20;;;;;;5066869;28;20040;-73
2021/05/14 07:12:02;;;;;;;10.93;7.47;;;13.30;90.10;;;;;;5084456;28;20036;-73
2021/05/14 07:14:29;;;;;;;10.90;6.50;;;13.30;90.00;;;;;;5067678;28;20051;-75
2021/05/14 07:16:56;;;;;;;12.65;7.82;;;13.30;90.00;;;;;;5069982;28;20047;-75
2021/05/14 07:19:26;;;;;;;11.20;7.75;;;13.40;90.30;;;;;;5065404;28;20061;-76
2021/05/14 07:21:56;;;;;;;12.32;7.82;;;13.40;90.00;;;;;;5066935;28;20124;-76
2021/05/14 07:24:23;;;;;;;10.85;7.55;;;13.50;89.70;;;;;;5074061;28;20082;-79
2021/05/14 07:26:50;;;;;;;11.65;7.95;;;13.50;89.60;;;;;;5072351;28;20397;-75
2021/05/14 07:29:17;;;;;;;11.60;7.40;;;13.50;89.50;;;;;;5041149;28;20037;-75
2021/05/14 07:31:44;;;;;;;11.57;7.88;;;13.60;89.60;;;;;;5073920;28;20055;-76
2021/05/14 07:34:12;;;;;;;9.15;6.30;;;13.70;89.40;;;;;;5073408;28;20045;-77
2021/05/14 07:36:59;;;;;;;14.98;8.98;;;13.80;89.30;;;;;;5070446;28;20041;-76
2021/05/14 07:39:27;;;;;;;13.13;9.70;;;13.90;88.60;;;;;;5054216;28;20555;-78
2021/05/14 07:41:54;;;;;;;13.77;8.77;;;13.80;89.10;;;;;;5057690;28;20115;-77
2021/05/14 07:44:22;;;;;;;15.70;10.27;;;13.70;88.50;;;;;;5074059;28;20500;-74
2021/05/14 07:46:50;;;;;;;16.90;11.45;;;13.80;88.40;;;;;;5074573;28;20051;-75
2021/05/14 07:49:17;;;;;;;12.38;8.68;;;13.70;88.40;;;;;;5056169;28;20507;-77
2021/05/14 07:51:44;;;;;;;11.23;7.35;;;13.70;88.50;;;;;;5072373;28;20037;-76
2021/05/14 07:54:11;;;;;;;11.82;8.38;;;13.80;88.70;;;;;;5072235;28;20040;-76
2021/05/14 07:56:38;;;;;;;12.30;8.57;;;13.90;88.70;;;;;;5072114;28;20047;-75
2021/05/14 07:59:12;;;;;;;12.68;8.77;;;13.90;88.40;;;;;;5051353;28;20048;-75
2021/05/14 08:01:39;;;;;;;13.02;8.77;;;13.80;88.50;;;;;;5075878;28;20128;-76
2021/05/14 08:04:06;;;;;;;11.27;8.32;;;13.90;88.70;;;;;;5056359;28;20123;-76
2021/05/14 08:06:33;;;;;;;13.52;9.75;;;13.90;88.50;;;;;;5054058;28;20095;-76
2021/05/14 08:09:05;;;;;;;15.02;10.05;;;13.80;88.20;;;;;;5068161;28;20040;-76
2021/05/14 08:11:32;;;;;;;13.80;9.75;;;13.80;88.30;;;;;;5061669;28;20028;-76
2021/05/14 08:13:59;;;;;;;12.88;8.73;;;13.80;88.40;;;;;;5073876;28;20139;-76
2021/05/14 08:16:26;;;;;;;14.05;9.57;;;13.80;88.50;;;;;;5073099;28;20047;-76
2021/05/14 08:18:53;;;;;;;12.25;8.80;;;13.80;88.00;;;;;;5074580;28;20036;-75
2021/05/14 08:21:23;;;;;;;11.98;7.70;;;13.80;88.40;;;;;;5056430;28;20106;-80
2021/05/14 08:23:50;;;;;;;9.25;6.18;;;14.00;88.50;;;;;;5041438;28;20048;-82
2021/05/14 08:26:17;;;;;;;9.52;6.00;;;14.10;88.40;;;;;;5073348;28;20045;-82
2021/05/14 08:28:44;;;;;;;14.15;8.68;;;14.20;88.30;;;;;;5073237;28;20029;-80
2021/05/14 08:31:12;;;;;;;13.25;10.02;;;14.40;87.60;;;;;;5072542;28;20040;-76
2021/05/14 08:33:40;;;;;;;12.85;8.00;;;14.30;87.40;;;;;;5072687;28;20052;-76
2021/05/14 08:36:08;;;;;;;11.95;8.27;;;14.40;87.40;;;;;;5072321;28;20502;-76
2021/05/14 08:38:35;;;;;;;14.93;9.63;;;14.40;87.50;;;;;;5072100;28;20045;-75
2021/05/14 08:41:04;;;;;;;11.80;7.80;;;14.50;87.30;;;;;;5053417;28;20071;-77
2021/05/14 08:43:33;;;;;;;10.80;7.72;;;14.60;87.40;;;;;;5056623;28;20043;-77
2021/05/14 08:46:06;;;;;;;8.60;5.97;;;14.60;87.20;;;;;;5056568;28;20462;-76
2021/05/14 08:48:35;;;;;;;10.65;6.07;;;14.70;87.10;;;;;;5075974;28;20491;-81
2021/05/14 08:51:08;;;;;;;9.77;6.63;;;14.70;87.20;;;;;;5045915;28;20443;-75
2021/05/14 08:53:38;;;;;;;11.10;7.07;;;14.70;87.20;;;;;;5073141;28;20131;-80
2021/05/14 08:56:08;;;;;;;13.95;8.15;;;14.80;87.00;;;;;;5058743;28;20048;-80
2021/05/14 08:58:39;;;;;;;12.20;7.57;;;14.80;86.70;;;;;;5072209;28;20392;-80
2021/05/14 09:01:18;;;;;;;11.02;7.22;;;14.80;86.60;;;;;;5035361;28;20040;-82
2021/05/14 09:04:07;;;;;;;13.07;8.57;;;14.90;86.70;;;;;;5072959;28;20143;-79
2021/05/14 09:06:38;;;;;;;13.15;9.05;;;14.90;86.10;;;;;;5063518;28;20062;-78
2021/05/14 09:09:07;;;;;;;13.95;9.13;;;14.90;86.10;;;;;;5072034;28;20049;-79
2021/05/14 09:11:35;;;;;;;17.63;11.40;;;14.90;86.00;;;;;;5072352;28;20037;-78
2021/05/14 09:14:04;;;;;;;16.85;11.77;;;14.90;85.50;;;;;;5052194;28;20057;-78
2021/05/14 09:16:43;;;;;;;16.90;11.50;;;14.80;85.10;;;;;;5052733;28;20033;-78
2021/05/14 09:19:11;;;;;;;20.83;14.23;;;14.90;84.80;;;;;;5072034;28;20049;-74
2021/05/14 09:21:41;;;;;;;19.40;13.48;;;14.70;84.00;;;;;;5056882;28;20484;-74
2021/05/14 09:24:08;;;;;;;14.32;9.73;;;14.70;84.60;;;;;;5052925;28;20494;-74
2021/05/14 09:26:35;;;;;;;13.05;8.85;;;14.80;85.10;;;;;;5054001;28;20052;-74
2021/05/14 09:29:13;;;;;;;12.20;8.00;;;14.80;85.10;;;;;;5071006;28;20040;-74
2021/05/14 09:31:40;;;;;;;13.43;8.75;;;14.90;85.20;;;;;;5071061;28;20040;-76
2021/05/14 09:34:07;;;;;;;12.98;8.02;;;14.90;85.20;;;;;;5071520;28;20040;-77
2021/05/14 09:36:35;;;;;;;13.07;8.35;;;14.80;84.80;;;;;;5055450;28;20049;-77
2021/05/14 09:39:08;;;;;;;12.70;8.35;;;14.80;85.00;;;;;;5072032;28;20041;-77
2021/05/14 09:41:40;;;;;;;14.27;8.23;;;14.90;84.90;;;;;;5072193;28;20094;-77
2021/05/14 09:44:14;;;;;;;12.18;8.30;;;15.10;85.10;;;;;;5051851;28;20431;-76
2021/05/14 09:46:52;;;;;;;16.70;10.00;;;15.20;84.40;;;;;;5051829;28;20068;-77
2021/05/14 09:49:21;;;;;;;14.63;8.70;;;15.10;83.70;;;;;;5071310;28;20075;-76
2021/05/14 09:52:06;;;;;;;15.80;9.75;;;15.10;84.40;;;;;;5055350;28;20071;-76
2021/05/14 09:54:43;;;;;;;15.02;9.30;;;15.10;84.00;;;;;;5071071;28;20045;-76
2021/05/14 09:59:47;;;;;;;14.02;7.82;;;15.30;83.70;;;;;;5071504;28;20511;-73
2021/05/14 10:02:38;;;;;;;12.02;7.95;;;15.50;83.90;;;;;;5065026;28;20485;-74
2021/05/14 10:05:13;;;;;;;13.95;8.98;;;15.60;83.30;;;;;;5071797;28;20078;-75
2021/05/14 10:07:45;;;;;;;15.63;10.05;;;15.60;83.30;;;;;;5069828;28;20492;-75
2021/05/14 10:10:13;;;;;;;16.30;10.57;;;15.70;82.90;;;;;;5053431;28;20044;-75
2021/05/14 10:12:40;;;;;;;17.85;11.70;;;15.80;81.40;;;;;;5053466;28;20131;-75
2021/05/14 10:15:11;;;;;;;17.85;10.55;;;15.60;80.60;;;;;;5051582;28;20368;-74
2021/05/14 10:17:40;;;;;;;13.25;9.27;;;15.50;81.40;;;;;;5071467;28;20388;-74
2021/05/14 10:20:19;;;;;;;12.68;8.38;;;15.50;82.00;;;;;;5083725;28;20103;-74
2021/05/14 10:22:50;;;;;;;14.35;8.30;;;15.70;82.00;;;;;;5065443;28;20052;-74
2021/05/14 10:25:44;;;;;;;11.50;7.60;;;15.90;81.90;;;;;;5059082;28;20119;-73
2021/05/14 10:28:13;;;;;;;13.25;6.88;;;16.20;81.40;;;;;;5071546;28;20443;-73
2021/05/14 10:31:08;;;;;;;12.45;8.68;;;16.30;81.20;;;;;;5088443;28;20049;-73
2021/05/14 10:33:40;;;;;;;12.07;8.15;;;16.60;79.60;;;;;;5060654;28;20452;-72
2021/05/14 10:36:10;;;;;;;11.77;7.85;;;16.60;79.40;;;;;;5073666;28;20044;-73
2021/05/14 10:38:37;;;;;;;12.57;7.80;;;16.60;80.00;;;;;;5074836;28;20047;-73
2021/05/14 10:41:27;;;;;;;12.05;7.38;;;16.60;79.90;;;;;;5073308;28;20044;-73
2021/05/14 10:44:04;;;;;;;10.48;6.95;;;16.60;80.10;;;;;;5073709;28;20040;-72
2021/05/14 10:46:32;;;;;;;13.05;8.00;;;16.60;80.60;;;;;;5068557;28;20123;-74
2021/05/14 10:49:05;;;;;;;9.63;7.10;;;16.80;79.30;;;;;;5072415;28;20035;-74
2021/05/14 10:51:50;;;;;;;11.13;7.68;;;16.80;79.30;;;;;;5074341;28;20025;-73
2021/05/14 10:54:39;;;;;;;10.93;6.95;;;16.90;79.10;;;;;;5074077;28;20488;-73
2021/05/14 10:57:11;;;;;;;10.30;6.68;;;16.80;78.90;;;;;;5072836;28;20052;-74
2021/05/14 10:59:42;;;;;;;9.90;6.55;;;16.80;78.50;;;;;;5059857;28;20094;-75
2021/05/14 11:02:29;;;;;;;8.50;6.45;;;16.70;78.90;;;;;;5073612;28;20497;-72
2021/05/14 11:04:58;;;;;;;7.70;5.28;;;16.70;78.80;;;;;;5062697;28;20090;-73
2021/05/14 11:07:39;;;;;;;8.75;5.78;;;16.80;79.10;;;;;;5072491;28;20091;-73
2021/05/14 11:10:12;;;;;;;7.50;5.20;;;16.90;77.90;;;;;;5073819;28;20051;-72
2021/05/14 11:12:40;;;;;;;7.88;5.63;;;17.00;77.70;;;;;;5072285;28;20144;-73
2021/05/14 11:15:14;;;;;;;8.88;6.50;;;17.00;77.00;;;;;;5072483;28;20059;-73
2021/05/14 11:17:41;;;;;;;7.18;5.47;;;17.00;75.90;;;;;;5072287;28;20048;-73
2021/05/14 11:20:21;;;;;;;8.02;4.78;;;17.00;76.30;;;;;;5052295;28;20052;-73
2021/05/14 11:22:48;;;;;;;7.68;5.20;;;17.30;76.60;;;;;;5069230;28;20032;-73
2021/05/14 11:25:20;;;;;;;6.70;4.53;;;17.60;76.60;;;;;;5072243;28;20044;-73
2021/05/14 11:27:51;;;;;;;7.47;4.88;;;17.90;76.00;;;;;;5073762;28;20033;-73
2021/05/14 11:30:19;;;;;;;6.68;4.25;;;18.10;75.70;;;;;;5073729;28;20044;-73
2021/05/14 11:32:47;;;;;;;6.43;4.75;;;18.30;75.30;;;;;;5074430;28;20044;-77
2021/05/14 11:35:21;;;;;;;7.60;5.15;;;18.40;74.80;;;;;;5065274;28;20786;-77
2021/05/14 11:37:53;;;;;;;5.97;4.25;;;18.50;74.40;;;;;;5069939;28;20055;-72
2021/05/14 11:40:29;;;;;;;6.35;3.83;;;18.50;74.20;;;;;;5061339;28;20090;-72
2021/05/14 11:42:59;;;;;;;6.47;4.05;;;18.70;73.70;;;;;;5065980;28;20376;-71
2021/05/14 11:45:32;;;;;;;6.22;3.97;;;18.90;73.00;;;;;;5067950;28;20067;-75
2021/05/14 11:48:07;;;;;;;6.47;4.60;;;19.10;73.00;;;;;;5053976;28;20037;-77
2021/05/14 11:50:40;;;;;;;8.23;5.13;;;19.00;72.00;;;;;;5054327;28;20532;-76
2021/05/14 11:53:10;;;;;;;7.40;4.03;;;19.20;71.80;;;;;;5064711;28;20046;-75
2021/05/14 11:55:39;;;;;;;7.65;4.75;;;19.20;71.90;;;;;;5064494;28;20036;-75
2021/05/14 11:58:06;;;;;;;5.28;3.75;;;19.50;70.30;;;;;;5070832;28;20051;-75
2021/05/14 12:00:36;;;;;;;5.43;3.38;;;19.60;70.40;;;;;;5042890;28;20049;-79
2021/05/14 12:03:07;;;;;;;4.45;3.13;;;19.90;70.10;;;;;;5070613;28;20413;-77
2021/05/14 12:05:35;;;;;;;5.03;3.23;;;20.20;70.30;;;;;;5070686;28;20048;-77
2021/05/14 12:08:13;;;;;;;4.65;3.38;;;20.20;69.90;;;;;;5057458;28;20210;-75
2021/05/14 12:11:03;;;;;;;7.00;4.63;;;20.60;69.80;;;;;;5049664;28;20500;-75
2021/05/14 12:13:33;;;;;;;5.82;4.00;;;20.80;67.60;;;;;;5067759;28;20035;-76
2021/05/14 12:16:04;;;;;;;6.60;3.50;;;21.00;68.20;;;;;;5066229;28;20078;-76
2021/05/14 12:18:56;;;;;;;4.82;3.05;;;21.20;67.90;;;;;;5063763;28;20488;-74
2021/05/14 12:21:28;;;;;;;4.50;3.17;;;21.30;67.70;;;;;;5063577;28;20652;-74
2021/05/14 12:23:57;;;;;;;4.90;2.57;;;21.20;67.20;;;;;;5061293;28;20140;-74
2021/05/14 12:26:29;;;;;;;4.13;2.85;;;21.20;66.40;;;;;;5065513;28;20032;-78
2021/05/14 12:28:56;;;;;;;5.63;2.83;;;20.60;65.80;;;;;;5047339;28;20032;-78
2021/05/14 12:31:26;;;;;;;4.20;2.78;;;20.40;67.90;;;;;;5058156;28;20082;-76
2021/05/14 12:33:54;;;;;;;4.63;2.20;;;20.80;67.30;;;;;;5057817;28;20453;-75
2021/05/14 12:36:35;;;;;;;4.97;2.42;;;21.00;66.60;;;;;;5061099;28;20040;-77
2021/05/14 12:39:17;;;;;;;3.33;1.92;;;21.30;65.90;;;;;;5063475;28;20098;-76
2021/05/14 12:41:53;;;;;;;4.05;2.85;;;21.80;66.00;;;;;;5065248;28;20047;-76
2021/05/14 12:44:35;;;;;;;5.85;3.45;;;22.40;63.10;;;;;;5070613;28;20172;-73
2021/05/14 12:47:10;;;;;;;3.85;2.70;;;22.50;61.30;;;;;;5052392;28;20037;-73
2021/05/14 12:49:44;;;;;;;4.35;2.53;;;22.70;61.10;;;;;;5048949;28;20699;-73
2021/05/14 12:52:19;;;;;;;3.42;1.85;;;23.10;60.80;;;;;;5050349;28;20044;-73
2021/05/14 12:54:51;;;;;;;2.92;1.92;;;23.60;60.70;;;;;;5060187;28;20048;-74
2021/05/14 12:57:26;;;;;;;3.37;1.73;;;23.80;59.90;;;;;;5054021;28;20396;-73
2021/05/14 12:59:54;;;;;;;2.05;1.52;;;23.90;59.30;;;;;;5031613;28;20049;-73